Time;durP1;ratioP1;P1;durP2;ratioP2;P2;SDS_P1;SDS_P2;PMS_P1;PMS_P2;Temp;Humidity;BMP_temperature;BMP_pressure;BME280_temperature;BME280_humidity;BME280_pressure;Samples;Min_cycle;Max_cycle;Signal;HPM_P1;HPM_P2
2022/03/15 00:01:04;;;;;;;23.15;14.80;;;8.80;48.00;;;;;;5081514;28;20093;-59
2022/03/15 00:03:30;;;;;;;24.05;14.80;;;8.70;48.10;;;;;;5073048;28;20024;-59
2022/03/15 00:05:56;;;;;;;22.60;14.13;;;8.70;48.30;;;;;;5072475;28;20113;-59
2022/03/15 00:08:21;;;;;;;24.17;14.50;;;8.60;49.10;;;;;;5073263;28;20099;-59
2022/03/15 00:10:48;;;;;;;29.77;15.57;;;8.60;48.60;;;;;;5084689;28;20028;-58
2022/03/15 00:13:15;;;;;;;21.92;13.90;;;8.50;48.60;;;;;;5071027;28;20051;-60
2022/03/15 00:15:42;;;;;;;24.13;15.20;;;8.50;48.60;;;;;;5061834;28;20032;-62
2022/03/15 00:18:08;;;;;;;23.52;14.57;;;8.50;48.70;;;;;;5072974;28;20024;-57
2022/03/15 00:20:34;;;;;;;27.02;14.80;;;8.50;48.80;;;;;;5075260;28;20028;-60
2022/03/15 00:23:00;;;;;;;25.25;15.48;;;8.50;48.80;;;;;;5081622;28;20036;-60
2022/03/15 00:25:27;;;;;;;31.80;15.48;;;8.50;48.80;;;;;;5073737;28;20039;-56
2022/03/15 00:27:53;;;;;;;24.33;15.25;;;8.50;48.90;;;;;;5070957;28;20493;-57
2022/03/15 00:30:23;;;;;;;25.88;15.95;;;8.50;48.90;;;;;;5070054;28;20115;-57
2022/03/15 00:32:49;;;;;;;24.92;15.20;;;8.50;49.00;;;;;;5091062;28;20031;-58
2022/03/15 00:35:19;;;;;;;21.48;14.18;;;8.50;49.00;;;;;;5073005;28;20452;-58
2022/03/15 00:37:46;;;;;;;24.70;14.30;;;8.40;49.00;;;;;;5092244;28;20021;-58
2022/03/15 00:40:13;;;;;;;27.13;15.95;;;8.40;49.00;;;;;;5092114;28;20106;-53
2022/03/15 00:42:40;;;;;;;27.23;16.50;;;8.40;48.90;;;;;;5092622;28;20042;-60
2022/03/15 00:45:07;;;;;;;33.00;18.42;;;8.50;49.00;;;;;;5091741;28;20035;-58
2022/03/15 00:47:33;;;;;;;28.73;16.13;;;8.40;49.10;;;;;;5079239;28;20158;-58
2022/03/15 00:49:59;;;;;;;26.85;16.35;;;8.40;49.10;;;;;;5071949;28;20025;-58
2022/03/15 00:52:25;;;;;;;39.92;20.85;;;8.40;49.20;;;;;;5070945;28;20121;-61
2022/03/15 00:54:51;;;;;;;29.13;16.92;;;8.30;49.30;;;;;;5070592;28;20028;-58
2022/03/15 00:57:18;;;;;;;32.55;16.80;;;8.30;49.30;;;;;;5074222;28;20032;-59
2022/03/15 00:59:43;;;;;;;41.92;21.00;;;8.30;49.30;;;;;;5072425;28;20038;-58
2022/03/15 01:02:09;;;;;;;35.28;18.33;;;8.30;49.30;;;;;;5071253;28;20466;-56
2022/03/15 01:04:35;;;;;;;74.22;26.95;;;8.30;49.30;;;;;;5064665;28;20041;-58
2022/03/15 01:07:00;;;;;;;78.22;33.15;;;8.30;49.30;;;;;;5077424;28;20031;-56
2022/03/15 01:09:26;;;;;;;31.63;17.92;;;8.30;49.30;;;;;;5085428;28;20057;-56
2022/03/15 01:11:52;;;;;;;22.83;15.32;;;8.30;49.30;;;;;;5086067;28;20039;-56
2022/03/15 01:14:18;;;;;;;25.73;14.88;;;8.30;50.00;;;;;;5069522;28;20082;-57
2022/03/15 01:16:43;;;;;;;26.05;15.90;;;8.20;49.40;;;;;;5071381;28;20029;-62
2022/03/15 01:19:09;;;;;;;30.45;15.98;;;8.20;49.60;;;;;;5070703;28;20065;-57
2022/03/15 01:21:37;;;;;;;27.60;18.02;;;8.10;49.70;;;;;;5072302;28;20037;-56
2022/03/15 01:24:08;;;;;;;31.67;21.20;;;8.10;49.60;;;;;;5090645;28;20111;-58
2022/03/15 01:26:34;;;;;;;51.40;30.75;;;8.20;49.70;;;;;;5090887;28;20043;-56
2022/03/15 01:29:01;;;;;;;28.92;18.25;;;8.10;49.80;;;;;;5089388;28;20524;-58
2022/03/15 01:31:27;;;;;;;24.40;14.75;;;8.10;49.80;;;;;;5089567;28;20070;-57
2022/03/15 01:33:53;;;;;;;22.88;14.95;;;8.00;49.90;;;;;;5068954;28;20059;-56
2022/03/15 01:36:20;;;;;;;24.17;14.45;;;8.00;49.90;;;;;;5070570;28;20426;-54
2022/03/15 01:38:46;;;;;;;27.80;14.90;;;8.10;50.00;;;;;;5056967;28;20177;-62
2022/03/15 01:41:12;;;;;;;21.65;14.18;;;8.00;50.00;;;;;;5049840;28;20025;-59
2022/03/15 01:43:40;;;;;;;27.10;15.32;;;8.10;50.00;;;;;;5087720;28;20039;-59
2022/03/15 01:46:06;;;;;;;26.65;14.80;;;8.10;50.00;;;;;;5088971;28;20043;-58
2022/03/15 01:48:33;;;;;;;26.70;15.65;;;8.10;50.00;;;;;;5074102;28;20036;-58
2022/03/15 01:50:59;;;;;;;23.70;14.85;;;8.10;50.00;;;;;;5090317;28;20055;-57
2022/03/15 01:53:25;;;;;;;24.95;15.38;;;8.10;49.90;;;;;;5072177;28;20033;-59
2022/03/15 01:55:51;;;;;;;24.60;14.38;;;8.10;49.90;;;;;;5087684;28;20551;-57
2022/03/15 01:58:17;;;;;;;25.35;14.55;;;8.10;49.90;;;;;;5091047;28;20119;-55
2022/03/15 02:00:44;;;;;;;25.17;14.88;;;8.10;49.90;;;;;;5088632;28;20032;-59
2022/03/15 02:03:10;;;;;;;23.83;14.52;;;8.10;49.90;;;;;;5088888;28;20059;-61
2022/03/15 02:05:36;;;;;;;27.75;14.70;;;8.10;49.90;;;;;;5090331;28;20091;-58
2022/03/15 02:08:10;;;;;;;23.80;14.63;;;8.10;49.80;;;;;;5087744;28;20024;-60
2022/03/15 02:10:35;;;;;;;23.98;14.65;;;8.10;49.90;;;;;;5076782;28;20422;-58
2022/03/15 02:13:02;;;;;;;22.95;13.88;;;8.10;49.90;;;;;;5068525;28;20036;-58
2022/03/15 02:15:28;;;;;;;25.00;14.50;;;8.10;49.90;;;;;;5070926;28;20029;-58
2022/03/15 02:17:54;;;;;;;23.40;14.77;;;8.10;49.90;;;;;;5070357;28;20055;-59
2022/03/15 02:20:20;;;;;;;51.33;30.35;;;8.20;49.90;;;;;;5070870;28;20028;-58
2022/03/15 02:22:46;;;;;;;67.60;37.83;;;8.20;49.80;;;;;;5064946;28;20032;-60
2022/03/15 02:25:12;;;;;;;35.25;19.77;;;8.20;49.70;;;;;;5050583;28;20382;-60
2022/03/15 02:27:38;;;;;;;23.92;16.77;;;8.20;49.70;;;;;;5049015;28;20383;-56
2022/03/15 02:30:06;;;;;;;23.15;14.70;;;8.20;49.70;;;;;;5059071;28;20037;-58
2022/03/15 02:32:32;;;;;;;25.88;14.70;;;8.20;49.70;;;;;;5084656;28;20028;-59
2022/03/15 02:34:58;;;;;;;23.25;14.85;;;8.20;49.90;;;;;;5088700;28;20036;-58
2022/03/15 02:37:24;;;;;;;26.83;15.05;;;8.20;50.00;;;;;;5090668;28;20431;-59
2022/03/15 02:39:50;;;;;;;26.58;14.38;;;8.20;50.00;;;;;;5090102;28;20028;-57
2022/03/15 02:42:17;;;;;;;22.60;14.15;;;8.20;50.00;;;;;;5072692;28;20385;-56
2022/03/15 02:44:43;;;;;;;22.88;14.57;;;8.20;50.00;;;;;;5060064;28;20506;-59
2022/03/15 02:47:08;;;;;;;21.75;13.88;;;8.20;50.00;;;;;;5075850;28;20107;-58
2022/03/15 02:49:34;;;;;;;25.48;14.82;;;8.10;49.90;;;;;;5062869;28;20025;-58
2022/03/15 02:52:00;;;;;;;22.73;14.40;;;8.20;49.90;;;;;;5053656;28;20033;-55
2022/03/15 02:54:25;;;;;;;22.23;14.27;;;8.20;50.00;;;;;;5072634;28;20086;-58
2022/03/15 02:56:51;;;;;;;21.25;13.98;;;8.10;50.30;;;;;;5093933;28;20409;-58
2022/03/15 02:59:17;;;;;;;27.02;14.77;;;8.00;50.50;;;;;;5074107;28;20040;-56
2022/03/15 03:01:48;;;;;;;20.40;13.70;;;7.90;50.60;;;;;;5093262;28;20531;-60
2022/03/15 03:04:32;;;;;;;24.88;15.43;;;7.90;50.80;;;;;;5094480;28;20036;-59
2022/03/15 03:07:01;;;;;;;23.65;13.85;;;7.80;51.00;;;;;;5074266;28;20045;-56
2022/03/15 03:09:28;;;;;;;23.73;14.13;;;7.80;50.90;;;;;;5072957;28;20028;-57
2022/03/15 03:11:54;;;;;;;23.13;14.07;;;7.80;50.90;;;;;;5093713;28;20032;-59
2022/03/15 03:14:21;;;;;;;21.23;13.55;;;7.80;50.80;;;;;;5093209;28;20020;-61
2022/03/15 03:16:47;;;;;;;22.35;13.98;;;7.80;50.70;;;;;;5088898;28;20143;-60
2022/03/15 03:19:12;;;;;;;21.10;13.73;;;7.80;50.60;;;;;;5079927;28;20075;-58
2022/03/15 03:21:38;;;;;;;23.48;14.10;;;7.80;50.60;;;;;;5074180;28;20086;-55
2022/03/15 03:24:06;;;;;;;26.02;15.35;;;7.80;50.60;;;;;;5073498;28;20433;-58
2022/03/15 03:26:37;;;;;;;23.55;15.05;;;7.80;50.40;;;;;;5073442;28;20039;-58
2022/03/15 03:29:06;;;;;;;20.55;14.35;;;7.80;50.30;;;;;;5093428;28;20032;-57
2022/03/15 03:31:32;;;;;;;22.60;14.00;;;7.80;50.20;;;;;;5091161;28;20043;-59
2022/03/15 03:33:58;;;;;;;22.08;14.75;;;7.80;50.20;;;;;;5082538;28;20029;-58
2022/03/15 03:36:24;;;;;;;26.52;15.65;;;7.90;50.10;;;;;;5072531;28;20362;-60
2022/03/15 03:38:50;;;;;;;24.08;15.75;;;7.90;50.00;;;;;;5090403;28;20439;-56
2022/03/15 03:41:16;;;;;;;22.33;16.05;;;7.90;49.90;;;;;;5093748;28;20491;-59
2022/03/15 03:43:42;;;;;;;27.15;15.18;;;7.90;49.90;;;;;;5083413;28;20028;-57
2022/03/15 03:46:08;;;;;;;23.52;14.93;;;7.90;49.80;;;;;;5072710;28;20123;-59
2022/03/15 03:48:34;;;;;;;26.10;15.52;;;7.80;49.80;;;;;;5073585;28;20028;-59
2022/03/15 03:51:01;;;;;;;25.38;15.40;;;7.90;49.90;;;;;;5068586;28;20065;-57
2022/03/15 03:53:26;;;;;;;27.23;14.85;;;7.90;49.90;;;;;;5064399;28;20075;-57
2022/03/15 03:55:52;;;;;;;26.88;14.80;;;7.80;49.90;;;;;;5085821;28;20414;-59
2022/03/15 03:58:19;;;;;;;24.35;15.68;;;7.90;50.00;;;;;;5093256;28;20024;-57
2022/03/15 04:00:45;;;;;;;28.80;15.23;;;7.90;50.00;;;;;;5088881;28;20062;-59
2022/03/15 04:03:11;;;;;;;32.92;16.50;;;7.90;50.10;;;;;;5076678;28;20031;-57
2022/03/15 04:05:40;;;;;;;28.95;16.40;;;7.80;49.70;;;;;;5081941;28;20185;-56
2022/03/15 04:08:06;;;;;;;24.95;16.58;;;7.80;49.90;;;;;;5078281;28;20033;-58
2022/03/15 04:10:31;;;;;;;31.65;16.70;;;7.80;49.60;;;;;;5055590;28;20048;-59
2022/03/15 04:12:58;;;;;;;26.10;15.40;;;7.80;49.40;;;;;;5087585;28;20461;-57
2022/03/15 04:15:24;;;;;;;26.00;16.33;;;7.80;49.20;;;;;;5080893;28;20028;-58
2022/03/15 04:17:51;;;;;;;23.05;16.02;;;7.80;49.10;;;;;;5092127;28;20024;-57
2022/03/15 04:20:17;;;;;;;28.83;17.35;;;7.70;49.00;;;;;;5092969;28;20020;-57
2022/03/15 04:22:44;;;;;;;28.92;16.40;;;7.80;49.00;;;;;;5091115;28;20027;-58
2022/03/15 04:25:10;;;;;;;27.25;17.27;;;7.80;48.90;;;;;;5075385;28;20032;-60
2022/03/15 04:27:36;;;;;;;25.38;17.10;;;7.80;48.80;;;;;;5072821;28;20048;-58
2022/03/15 04:30:04;;;;;;;26.05;17.40;;;7.70;48.70;;;;;;5093058;28;20027;-58
2022/03/15 04:32:29;;;;;;;25.20;17.98;;;7.70;48.60;;;;;;5078524;28;20032;-58
2022/03/15 04:34:55;;;;;;;26.15;17.75;;;7.80;48.60;;;;;;5076505;28;20024;-59
2022/03/15 04:37:23;;;;;;;27.70;17.77;;;7.80;48.50;;;;;;5082819;28;20068;-58
2022/03/15 04:39:49;;;;;;;26.98;17.63;;;7.70;48.40;;;;;;5071837;28;20399;-60
2022/03/15 04:42:16;;;;;;;32.28;18.20;;;7.70;48.40;;;;;;5075219;28;20033;-55
2022/03/15 04:44:42;;;;;;;28.42;17.88;;;7.70;48.30;;;;;;5081783;28;20027;-57
2022/03/15 04:47:07;;;;;;;30.55;18.88;;;7.70;48.20;;;;;;5072048;28;20032;-59
2022/03/15 04:49:34;;;;;;;29.33;19.17;;;7.70;48.20;;;;;;5070109;28;20119;-59
2022/03/15 04:52:00;;;;;;;30.73;19.08;;;7.70;48.20;;;;;;5072108;28;20034;-59
2022/03/15 04:54:26;;;;;;;27.70;17.92;;;7.70;48.20;;;;;;5071068;28;20024;-56
2022/03/15 04:56:52;;;;;;;32.80;19.05;;;7.70;48.10;;;;;;5071520;28;20489;-53
2022/03/15 04:59:17;;;;;;;28.98;17.38;;;7.70;48.10;;;;;;5082834;28;20157;-59
2022/03/15 05:01:43;;;;;;;29.75;18.25;;;7.60;48.10;;;;;;5070195;28;20055;-55
2022/03/15 05:04:09;;;;;;;29.52;17.63;;;7.50;48.20;;;;;;5078542;28;20024;-58
2022/03/15 05:06:38;;;;;;;28.08;17.45;;;7.50;48.40;;;;;;5089885;28;20048;-56
2022/03/15 05:09:04;;;;;;;28.42;17.90;;;7.40;48.20;;;;;;5061024;28;20043;-59
2022/03/15 05:11:31;;;;;;;29.13;18.73;;;7.40;48.40;;;;;;5069878;28;20424;-59
2022/03/15 05:13:57;;;;;;;28.75;18.02;;;7.40;48.50;;;;;;5070482;28;20552;-58
2022/03/15 05:16:23;;;;;;;27.15;18.38;;;7.40;48.40;;;;;;5071604;28;20119;-60
2022/03/15 05:18:51;;;;;;;28.63;18.30;;;7.40;48.40;;;;;;5071520;28;20507;-58
2022/03/15 05:21:17;;;;;;;30.67;18.30;;;7.40;48.40;;;;;;5071675;28;20103;-58
2022/03/15 05:23:44;;;;;;;30.45;18.77;;;7.40;48.40;;;;;;5071086;28;20137;-59
2022/03/15 05:26:11;;;;;;;28.48;17.98;;;7.40;48.40;;;;;;5079758;28;20491;-56
2022/03/15 05:28:37;;;;;;;34.55;18.58;;;7.50;48.40;;;;;;5073378;28;20021;-59
2022/03/15 05:31:22;;;;;;;29.85;18.55;;;7.50;48.30;;;;;;5070744;28;20389;-57
2022/03/15 05:33:48;;;;;;;30.00;18.80;;;7.50;48.10;;;;;;5064656;28;20024;-57
2022/03/15 05:36:14;;;;;;;33.30;18.92;;;7.50;48.00;;;;;;5069052;28;20040;-58
2022/03/15 05:38:41;;;;;;;30.25;17.88;;;7.40;48.00;;;;;;5071834;28;20036;-59
2022/03/15 05:41:08;;;;;;;28.63;18.25;;;7.40;48.00;;;;;;5072527;28;20028;-57
2022/03/15 05:43:34;;;;;;;27.17;17.10;;;7.30;47.90;;;;;;5071900;28;20025;-61
2022/03/15 05:46:01;;;;;;;28.75;17.63;;;7.20;48.00;;;;;;5073294;28;20528;-58
2022/03/15 05:48:26;;;;;;;27.92;17.88;;;7.20;48.10;;;;;;5070169;28;20028;-58
2022/03/15 05:50:52;;;;;;;30.65;17.40;;;7.20;48.10;;;;;;5069640;28;20576;-59
2022/03/15 05:53:17;;;;;;;30.35;17.30;;;7.20;47.90;;;;;;5065831;28;20028;-59
2022/03/15 05:55:43;;;;;;;27.23;16.75;;;7.20;47.90;;;;;;5077956;28;20032;-58
2022/03/15 05:58:09;;;;;;;29.77;18.17;;;7.30;48.00;;;;;;5065536;28;20024;-56
2022/03/15 06:00:35;;;;;;;27.80;18.15;;;7.40;47.70;;;;;;5069439;28;20028;-58
2022/03/15 06:03:01;;;;;;;33.70;18.20;;;7.50;48.20;;;;;;5069637;28;20028;-58
2022/03/15 06:05:27;;;;;;;26.17;16.83;;;7.60;47.30;;;;;;5084239;28;20048;-59
2022/03/15 06:07:53;;;;;;;28.83;17.65;;;7.70;47.10;;;;;;5090384;28;20116;-56
2022/03/15 06:10:24;;;;;;;27.25;17.75;;;7.80;46.90;;;;;;5071497;28;20028;-58
2022/03/15 06:12:51;;;;;;;25.92;16.67;;;7.80;46.60;;;;;;5070261;28;20017;-58
2022/03/15 06:15:18;;;;;;;27.48;17.48;;;7.80;46.40;;;;;;5069184;28;20111;-57
2022/03/15 06:18:00;;;;;;;28.73;16.55;;;7.90;46.40;;;;;;5068113;28;20035;-57
2022/03/15 06:20:28;;;;;;;25.35;17.05;;;7.90;46.20;;;;;;5049575;28;20021;-57
2022/03/15 06:22:54;;;;;;;28.50;16.80;;;8.00;46.00;;;;;;5068765;28;20478;-56
2022/03/15 06:25:21;;;;;;;28.70;17.75;;;8.00;45.50;;;;;;5092681;28;20107;-57
2022/03/15 06:27:47;;;;;;;26.55;17.13;;;7.90;45.50;;;;;;5090438;28;20096;-56
2022/03/15 06:30:16;;;;;;;27.90;16.40;;;7.90;45.70;;;;;;5073410;28;20086;-57
2022/03/15 06:32:42;;;;;;;28.13;16.85;;;7.90;45.80;;;;;;5075146;28;20017;-57
2022/03/15 06:35:09;;;;;;;25.83;16.98;;;7.90;45.60;;;;;;5090169;28;20028;-56
2022/03/15 06:37:42;;;;;;;29.52;17.10;;;7.90;45.60;;;;;;5072150;28;20035;-58
2022/03/15 06:40:09;;;;;;;24.35;17.02;;;8.00;45.70;;;;;;5073463;28;20385;-56
2022/03/15 06:42:36;;;;;;;29.17;17.65;;;8.00;45.50;;;;;;5075133;28;20448;-60
2022/03/15 06:45:03;;;;;;;24.25;16.73;;;8.00;45.40;;;;;;5089594;28;20103;-58
2022/03/15 06:47:28;;;;;;;25.70;17.00;;;8.10;45.40;;;;;;5069989;28;20105;-57
2022/03/15 06:49:54;;;;;;;28.10;18.17;;;8.20;45.20;;;;;;5073847;28;20469;-59
2022/03/15 06:52:20;;;;;;;31.55;17.42;;;8.20;45.10;;;;;;5078017;28;20044;-60
2022/03/15 06:54:46;;;;;;;27.38;16.75;;;8.30;45.00;;;;;;5070213;28;20024;-59
2022/03/15 06:57:13;;;;;;;26.00;17.08;;;8.40;45.60;;;;;;5054177;28;20017;-58
2022/03/15 06:59:39;;;;;;;23.58;16.70;;;8.60;44.60;;;;;;5053968;28;20120;-59
2022/03/15 07:02:05;;;;;;;25.52;15.98;;;8.60;44.30;;;;;;5064848;28;20051;-59
2022/03/15 07:04:31;;;;;;;28.48;17.13;;;8.70;44.10;;;;;;5070852;28;20067;-60
2022/03/15 07:06:56;;;;;;;26.00;16.60;;;8.60;44.00;;;;;;5073892;28;20051;-55
2022/03/15 07:09:23;;;;;;;25.75;18.08;;;8.70;44.10;;;;;;5072794;28;20036;-60
2022/03/15 07:11:49;;;;;;;36.92;17.05;;;8.70;44.10;;;;;;5056193;28;20037;-58
2022/03/15 07:14:15;;;;;;;26.25;16.40;;;8.70;44.20;;;;;;5054927;28;20025;-60
2022/03/15 07:16:41;;;;;;;31.20;18.27;;;8.80;44.20;;;;;;5071249;28;20489;-59
2022/03/15 07:19:08;;;;;;;28.38;16.55;;;9.20;44.00;;;;;;5072852;28;20055;-57
2022/03/15 07:21:35;;;;;;;28.75;17.88;;;9.80;42.90;;;;;;5069723;28;20024;-62
2022/03/15 07:24:01;;;;;;;29.52;17.85;;;10.30;41.90;;;;;;5076272;28;20056;-60
2022/03/15 07:26:27;;;;;;;34.85;21.20;;;10.80;41.20;;;;;;5055695;28;20120;-60
2022/03/15 07:28:53;;;;;;;25.80;16.77;;;11.30;40.60;;;;;;5069651;28;20099;-59
2022/03/15 07:31:19;;;;;;;31.10;18.35;;;12.00;39.80;;;;;;5073925;28;20036;-57
2022/03/15 07:33:45;;;;;;;31.92;18.17;;;12.20;38.60;;;;;;5072192;28;20488;-59
2022/03/15 07:36:10;;;;;;;29.38;16.45;;;12.50;38.30;;;;;;5072284;28;20025;-61
2022/03/15 07:38:40;;;;;;;60.35;39.05;;;12.90;37.80;;;;;;5067186;28;20396;-61
2022/03/15 07:41:06;;;;;;;27.98;16.58;;;12.80;36.80;;;;;;5067440;28;20025;-60
2022/03/15 07:43:32;;;;;;;36.42;21.40;;;12.60;36.90;;;;;;5072678;28;20370;-57
2022/03/15 07:45:58;;;;;;;54.78;31.98;;;12.40;37.00;;;;;;5071817;28;20398;-60
2022/03/15 07:48:24;;;;;;;27.65;18.65;;;12.50;37.50;;;;;;5072229;28;20052;-57
2022/03/15 07:50:52;;;;;;;23.80;17.90;;;12.80;37.60;;;;;;5072700;28;20060;-57
2022/03/15 07:53:19;;;;;;;40.42;24.83;;;13.40;37.00;;;;;;5072776;28;20100;-60
2022/03/15 07:55:48;;;;;;;36.65;23.17;;;13.70;35.80;;;;;;5053574;28;20048;-58
2022/03/15 07:58:13;;;;;;;28.88;18.33;;;13.70;35.70;;;;;;5069549;28;20059;-58
2022/03/15 08:00:39;;;;;;;22.60;16.38;;;13.60;35.20;;;;;;5073050;28;20024;-60
2022/03/15 08:03:05;;;;;;;37.28;23.80;;;13.70;35.50;;;;;;5079625;28;20393;-60
2022/03/15 08:05:30;;;;;;;26.52;17.80;;;14.00;35.50;;;;;;5074229;28;20109;-61
2022/03/15 08:07:56;;;;;;;26.38;17.75;;;14.30;34.90;;;;;;5059545;28;20180;-59
2022/03/15 08:10:22;;;;;;;31.02;17.83;;;14.70;34.90;;;;;;5082652;28;20480;-61
2022/03/15 08:12:48;;;;;;;28.67;17.63;;;15.00;33.90;;;;;;5072705;28;20112;-59
2022/03/15 08:15:13;;;;;;;29.13;17.90;;;15.00;33.80;;;;;;5072760;28;20034;-60
2022/03/15 08:17:40;;;;;;;25.35;17.30;;;15.10;33.60;;;;;;5069335;28;20024;-59
2022/03/15 08:20:38;;;;;;;32.33;18.08;;;15.20;33.20;;;;;;5070192;28;20455;-60
2022/03/15 08:23:04;;;;;;;25.10;17.45;;;15.40;33.30;;;;;;5074228;28;20108;-59
2022/03/15 08:25:30;;;;;;;27.05;18.98;;;15.90;32.80;;;;;;5070446;28;20104;-60
2022/03/15 08:27:56;;;;;;;31.45;17.02;;;16.40;32.30;;;;;;5065500;28;20430;-59
2022/03/15 08:30:23;;;;;;;28.45;18.20;;;17.00;31.40;;;;;;5069827;28;20032;-59
2022/03/15 08:32:48;;;;;;;23.10;17.55;;;17.30;30.80;;;;;;5067766;28;20085;-56
2022/03/15 08:35:14;;;;;;;32.08;19.35;;;17.40;30.40;;;;;;5073585;28;20536;-60
2022/03/15 08:37:42;;;;;;;21.45;16.42;;;17.00;30.30;;;;;;5069376;28;20473;-61
2022/03/15 08:40:09;;;;;;;29.50;16.52;;;16.40;31.00;;;;;;5054681;28;20176;-59
2022/03/15 08:42:35;;;;;;;29.30;16.95;;;15.80;31.80;;;;;;5070788;28;20089;-57
2022/03/15 08:45:01;;;;;;;26.33;16.17;;;15.40;33.20;;;;;;5067489;28;20112;-60
2022/03/15 08:47:28;;;;;;;51.42;32.40;;;15.10;33.00;;;;;;5063986;28;20021;-56
2022/03/15 08:49:55;;;;;;;27.13;17.85;;;14.80;33.60;;;;;;5071897;28;20028;-61
2022/03/15 08:52:21;;;;;;;26.30;16.80;;;14.70;33.90;;;;;;5072909;28;20025;-62
2022/03/15 08:54:46;;;;;;;28.17;17.48;;;14.70;34.00;;;;;;5065451;28;20025;-60
2022/03/15 08:57:12;;;;;;;30.17;18.15;;;14.80;34.10;;;;;;5073616;28;20472;-59
2022/03/15 08:59:38;;;;;;;26.55;17.15;;;14.80;33.80;;;;;;5082081;28;20365;-61
2022/03/15 09:02:04;;;;;;;29.50;17.67;;;14.60;34.20;;;;;;5052928;28;20024;-61
2022/03/15 09:04:30;;;;;;;29.25;18.15;;;14.60;35.20;;;;;;5076854;28;20102;-60
2022/03/15 09:06:56;;;;;;;39.13;17.95;;;14.60;34.70;;;;;;5089808;28;20036;-60
2022/03/15 09:09:24;;;;;;;29.90;16.90;;;14.70;34.70;;;;;;5087454;28;20115;-61
2022/03/15 09:11:50;;;;;;;35.40;16.48;;;14.80;34.70;;;;;;5091312;28;20023;-61
2022/03/15 09:14:16;;;;;;;22.40;15.23;;;14.80;34.60;;;;;;5058622;28;20033;-58
2022/03/15 09:16:42;;;;;;;29.08;16.30;;;14.80;34.50;;;;;;5036592;28;20036;-60
2022/03/15 09:19:09;;;;;;;26.63;16.05;;;14.50;34.90;;;;;;5058753;28;20166;-59
2022/03/15 09:21:36;;;;;;;26.05;15.60;;;14.40;35.40;;;;;;5059302;28;20079;-60
2022/03/15 09:24:01;;;;;;;27.65;16.63;;;14.50;35.40;;;;;;5057153;28;20024;-58
2022/03/15 09:26:27;;;;;;;37.65;17.67;;;14.60;35.30;;;;;;5061226;28;20369;-59
2022/03/15 09:28:53;;;;;;;30.95;17.02;;;14.70;35.20;;;;;;5071573;28;20126;-58
2022/03/15 09:31:23;;;;;;;31.38;15.15;;;14.90;35.30;;;;;;5072415;28;20425;-60
2022/03/15 09:33:48;;;;;;;28.10;16.77;;;15.00;35.10;;;;;;5071362;28;20056;-59
2022/03/15 09:36:15;;;;;;;24.70;16.08;;;15.10;35.20;;;;;;5071404;28;20414;-58
2022/03/15 09:38:59;;;;;;;22.83;16.02;;;15.20;35.10;;;;;;5072453;28;20020;-59
2022/03/15 09:41:27;;;;;;;24.67;15.07;;;15.30;35.10;;;;;;5070903;28;20082;-61
2022/03/15 09:43:54;;;;;;;26.55;15.90;;;15.20;35.40;;;;;;5071271;28;20030;-58
2022/03/15 09:46:23;;;;;;;30.38;17.63;;;15.10;35.70;;;;;;5071571;28;20039;-61
2022/03/15 09:48:54;;;;;;;24.10;16.25;;;15.10;36.00;;;;;;5068284;28;20475;-61
2022/03/15 09:51:21;;;;;;;35.85;18.17;;;15.20;35.80;;;;;;5050871;28;20028;-60
2022/03/15 09:54:06;;;;;;;25.60;16.15;;;15.30;35.70;;;;;;5062099;28;20093;-61
2022/03/15 09:56:38;;;;;;;34.28;17.42;;;15.30;35.90;;;;;;5064615;28;20024;-60
2022/03/15 09:59:19;;;;;;;28.35;17.45;;;15.40;35.80;;;;;;5070672;28;20020;-65
2022/03/15 10:01:50;;;;;;;22.83;16.30;;;15.50;35.80;;;;;;5067475;28;20447;-66
2022/03/15 10:04:22;;;;;;;23.33;16.45;;;15.50;35.80;;;;;;5058318;28;20032;-58
2022/03/15 10:06:49;;;;;;;26.95;16.50;;;15.50;35.80;;;;;;5069890;28;20048;-58
2022/03/15 10:09:16;;;;;;;24.35;16.63;;;15.60;35.90;;;;;;5064140;28;20048;-58
2022/03/15 10:11:42;;;;;;;25.83;15.25;;;15.70;35.80;;;;;;5067410;28;20472;-60
2022/03/15 10:14:10;;;;;;;29.92;15.63;;;15.80;35.60;;;;;;5065591;28;20025;-61
2022/03/15 10:16:41;;;;;;;22.98;15.10;;;15.90;35.60;;;;;;5051854;28;20033;-62
2022/03/15 10:19:13;;;;;;;26.40;14.75;;;15.90;35.60;;;;;;5061979;28;20108;-56
2022/03/15 10:21:49;;;;;;;25.80;15.73;;;15.90;35.70;;;;;;5070032;28;20024;-56
2022/03/15 10:24:23;;;;;;;24.70;17.05;;;16.00;35.50;;;;;;5070954;28;20028;-58
2022/03/15 10:26:51;;;;;;;23.88;14.18;;;16.00;35.60;;;;;;5068439;28;20039;-59
2022/03/15 10:29:18;;;;;;;22.38;14.57;;;16.00;35.40;;;;;;5069885;28;20032;-60
2022/03/15 10:31:45;;;;;;;19.08;12.05;;;16.00;35.20;;;;;;5076465;28;20043;-62
2022/03/15 10:34:13;;;;;;;23.13;12.48;;;16.00;35.00;;;;;;5057727;28;20031;-58
2022/03/15 10:36:40;;;;;;;21.52;13.57;;;16.20;35.00;;;;;;5065938;28;20096;-58
2022/03/15 10:39:11;;;;;;;36.08;19.17;;;16.40;34.70;;;;;;5068416;28;20044;-60
2022/03/15 10:42:04;;;;;;;24.92;13.95;;;16.50;34.40;;;;;;5070503;28;20028;-61
2022/03/15 10:44:31;;;;;;;20.30;12.30;;;16.50;34.10;;;;;;5067964;28;20547;-60
2022/03/15 10:47:12;;;;;;;21.08;13.10;;;16.60;34.30;;;;;;5070986;28;20036;-60
2022/03/15 10:49:50;;;;;;;20.92;12.35;;;16.70;34.10;;;;;;5066416;28;20033;-63
2022/03/15 10:52:33;;;;;;;20.40;13.57;;;16.80;34.10;;;;;;5065189;28;20024;-62
2022/03/15 10:55:25;;;;;;;29.05;13.63;;;16.90;33.90;;;;;;5062691;28;20029;-60
2022/03/15 10:58:05;;;;;;;22.17;11.73;;;16.80;33.70;;;;;;5064231;28;20032;-58
2022/03/15 11:00:36;;;;;;;20.73;11.55;;;16.70;33.50;;;;;;5067572;28;20046;-61
2022/03/15 11:03:10;;;;;;;21.30;13.23;;;16.70;33.70;;;;;;5067227;28;20033;-60
2022/03/15 11:05:37;;;;;;;19.35;11.85;;;16.70;33.80;;;;;;5064174;28;20071;-60
2022/03/15 11:08:10;;;;;;;18.45;11.52;;;16.70;33.80;;;;;;5066410;28;20052;-60
2022/03/15 11:10:39;;;;;;;17.90;11.77;;;16.70;33.80;;;;;;5071802;28;20024;-61
2022/03/15 11:13:11;;;;;;;16.90;10.70;;;16.80;33.80;;;;;;5069928;28;20036;-59
2022/03/15 11:15:53;;;;;;;16.17;10.65;;;16.90;33.70;;;;;;5070416;28;20103;-58
2022/03/15 11:18:19;;;;;;;17.15;10.80;;;16.90;33.70;;;;;;5074361;28;20035;-53
2022/03/15 11:20:50;;;;;;;16.13;10.45;;;16.80;33.90;;;;;;5076155;28;20029;-59
2022/03/15 11:23:17;;;;;;;14.52;10.25;;;16.70;34.00;;;;;;5082058;28;20458;-58
2022/03/15 11:25:47;;;;;;;16.25;11.65;;;16.80;34.10;;;;;;5072080;28;20103;-59
2022/03/15 11:28:23;;;;;;;20.83;12.10;;;16.80;34.90;;;;;;5067018;28;20043;-59
2022/03/15 11:30:50;;;;;;;22.75;13.38;;;16.90;34.20;;;;;;5070875;28;20029;-55
2022/03/15 11:33:16;;;;;;;16.10;11.48;;;17.00;34.10;;;;;;5071330;28;20081;-58
2022/03/15 11:35:42;;;;;;;15.85;11.35;;;17.00;34.00;;;;;;5070225;28;20035;-59
2022/03/15 11:38:12;;;;;;;17.20;11.43;;;17.00;34.10;;;;;;5066777;28;20028;-60
2022/03/15 11:40:38;;;;;;;17.60;11.30;;;17.00;34.00;;;;;;5072149;28;20108;-58
2022/03/15 11:43:42;;;;;;;18.65;11.80;;;17.00;34.00;;;;;;5071883;28;20048;-58
2022/03/15 11:46:16;;;;;;;19.13;10.87;;;16.90;34.10;;;;;;5068724;28;20104;-58
2022/03/15 11:49:05;;;;;;;15.05;10.30;;;16.90;34.30;;;;;;5089827;28;20043;-63
2022/03/15 11:51:55;;;;;;;14.25;9.55;;;16.80;34.40;;;;;;5051211;28;20033;-59
2022/03/15 11:54:58;;;;;;;18.92;9.52;;;16.80;34.60;;;;;;5083926;28;20430;-57
2022/03/15 11:57:59;;;;;;;17.42;10.05;;;16.70;34.90;;;;;;5083307;28;20032;-59
2022/03/15 12:00:38;;;;;;;12.50;9.20;;;16.60;35.10;;;;;;5040189;28;20504;-58
2022/03/15 12:03:07;;;;;;;21.90;10.25;;;16.60;35.20;;;;;;5071527;28;20108;-57
2022/03/15 12:05:53;;;;;;;14.77;9.82;;;16.70;35.30;;;;;;5061220;28;20051;-58
2022/03/15 12:08:23;;;;;;;14.20;9.98;;;16.90;35.10;;;;;;5079180;28;20538;-55
2022/03/15 12:11:03;;;;;;;16.35;9.32;;;17.10;34.80;;;;;;5075237;28;20108;-57
2022/03/15 12:13:32;;;;;;;17.13;9.57;;;17.10;34.60;;;;;;5072496;28;20024;-58
2022/03/15 12:16:13;;;;;;;15.55;8.35;;;17.20;34.70;;;;;;5071952;28;20067;-61
2022/03/15 12:19:05;;;;;;;15.70;8.80;;;17.20;34.40;;;;;;5072260;28;20032;-58
2022/03/15 12:21:31;;;;;;;21.25;8.43;;;17.20;34.50;;;;;;5090127;28;20032;-58
2022/03/15 12:23:56;;;;;;;12.70;7.70;;;17.20;34.30;;;;;;5091810;28;20471;-59
2022/03/15 12:26:27;;;;;;;14.23;7.40;;;17.20;34.50;;;;;;5067895;28;20048;-57
2022/03/15 12:29:03;;;;;;;10.95;7.40;;;17.30;34.50;;;;;;5069884;28;20119;-57
2022/03/15 12:31:32;;;;;;;14.73;6.97;;;17.20;34.60;;;;;;5071440;28;20115;-59
2022/03/15 12:34:06;;;;;;;15.30;7.45;;;17.20;34.40;;;;;;5067854;28;20032;-57
2022/03/15 12:36:40;;;;;;;12.50;7.45;;;17.10;34.70;;;;;;5083819;28;20347;-54
2022/03/15 12:39:14;;;;;;;15.73;7.75;;;17.10;34.90;;;;;;5075716;28;20488;-56